Terminal Aerodrome Forecast
Issued by NWS

Home | Current Version | Previous Version | Text Only | Print | Product List | Glossary On
Versions: 1 2 3 4 5 6 7 8 9 10 11 12 13 14 15
000
FTUS44 KMOB 250525
TAFBFM
TAF
KBFM 250525Z 2506/2606 00000KT P6SM SCT009 SCT020 BKN040
      TEMPO 2506/2510 P6SM BKN006
     FM251200 36005KT P6SM VCSH SCT020 BKN250=

USA.gov is the U.S. government's official web portal to all federal, state and local government web resources and services.